No particular awareness of the weather is required.    There are no Weather-warnings


Meteo18 Weather Cam more information Meteo18 Weather Cam


Thunder radar more information blitzortung!


Rain radar more information rain snow radar


Visit our other weather sites:

Template documentation
and downloads

And another site



Weather Underground History page Text

Daily Summary for July 8, 2016 Units:  Metric    English   Both
« Previous Day
Next Day »
Daily Weekly Monthly Yearly Custom
  High: Low: Average:
Temperature: 30.8 °C 11.9 °C 21.7 °C
Dew Point: 19.0 °C 11.2 °C 14.9 °C
Humidity: 98 % 40 % 69 %
Wind Speed: 11.3 km/h 0.0 km/h 0.7 km/h
Wind Gust: 16.1 km/h - -
Wind:- - SSW
Pressure: 1021.2 hPa 1016.8 hPa -
Precipitation: 0.0 mm    
Historical Graphs
 
 
Tabular Data for July 8, 2016
Time Temperature Dew Point Pressure Wind Wind Speed Wind Gust Humidity Rainfall Rate (Hourly)
00:02 16.6 °C 14.4 °C 1018.2 hPa Calm     87 % 0.0 mm
00:07 16.6 °C 14.4 °C 1018.2 hPa Calm     87 % 0.0 mm
00:12 16.7 °C 14.5 °C 1018.2 hPa Calm     87 % 0.0 mm
00:17 16.7 °C 14.5 °C 1018.2 hPa Calm     87 % 0.0 mm
00:22 16.7 °C 14.5 °C 1018.2 hPa Calm     87 % 0.0 mm
00:27 16.7 °C 14.7 °C 1017.8 hPa Calm     88 % 0.0 mm
00:32 16.7 °C 14.7 °C 1017.8 hPa Calm     88 % 0.0 mm
00:37 16.6 °C 14.6 °C 1017.8 hPa Calm     88 % 0.0 mm
00:42 16.4 °C 14.4 °C 1017.8 hPa Calm     88 % 0.0 mm
00:47 16.2 °C 14.2 °C 1017.8 hPa Calm     88 % 0.0 mm
00:52 16.1 °C 14.1 °C 1017.8 hPa Calm     88 % 0.0 mm
00:57 15.9 °C 13.9 °C 1017.8 hPa Calm   1.6 km/h 88 % 0.0 mm
01:02 15.9 °C 13.9 °C 1017.8 hPa Calm   1.6 km/h 88 % 0.0 mm
01:07 15.8 °C 13.8 °C 1017.5 hPa Calm     88 % 0.0 mm
01:12 15.6 °C 13.6 °C 1017.5 hPa Calm     88 % 0.0 mm
01:17 15.4 °C 13.6 °C 1017.5 hPa Calm     89 % 0.0 mm
01:22 15.3 °C 13.5 °C 1017.5 hPa Calm     89 % 0.0 mm
01:27 15.2 °C 13.6 °C 1017.5 hPa Calm     90 % 0.0 mm
01:32 15.2 °C 13.6 °C 1017.2 hPa Calm     90 % 0.0 mm
01:37 15.1 °C 13.5 °C 1017.2 hPa Calm     90 % 0.0 mm
01:42 15.1 °C 13.5 °C 1017.2 hPa Calm     90 % 0.0 mm
01:47 15.0 °C 13.4 °C 1017.2 hPa Calm     90 % 0.0 mm
01:52 14.9 °C 13.3 °C 1017.2 hPa Calm     90 % 0.0 mm
01:57 14.8 °C 13.2 °C 1017.5 hPa Calm     90 % 0.0 mm
02:02 14.7 °C 13.2 °C 1017.5 hPa Calm     91 % 0.0 mm
02:07 14.6 °C 13.1 °C 1017.2 hPa Calm     91 % 0.0 mm
02:12 14.4 °C 12.9 °C 1017.5 hPa Calm     91 % 0.0 mm
02:17 14.4 °C 12.9 °C 1017.5 hPa Calm     91 % 0.0 mm
02:22 14.3 °C 12.9 °C 1017.5 hPa Calm     91 % 0.0 mm
02:27 14.2 °C 12.9 °C 1017.2 hPa Calm     92 % 0.0 mm
02:32 14.2 °C 12.9 °C 1017.5 hPa Calm     92 % 0.0 mm
02:37 14.2 °C 12.9 °C 1017.5 hPa Calm     92 % 0.0 mm
02:42 14.2 °C 13.1 °C 1017.2 hPa Calm     93 % 0.0 mm
02:47 14.2 °C 13.1 °C 1017.5 hPa Calm     93 % 0.0 mm
02:52 14.2 °C 12.9 °C 1017.5 hPa Calm     92 % 0.0 mm
02:57 14.1 °C 12.8 °C 1017.5 hPa Calm     92 % 0.0 mm
03:02 14.1 °C 12.8 °C 1017.5 hPa Calm     92 % 0.0 mm
03:07 13.9 °C 12.6 °C 1017.5 hPa Calm     92 % 0.0 mm
03:12 13.7 °C 12.4 °C 1017.5 hPa Calm     92 % 0.0 mm
03:17 13.6 °C 12.3 °C 1017.2 hPa Calm     92 % 0.0 mm
03:27 13.4 °C 12.3 °C 1017.2 hPa Calm     93 % 0.0 mm
03:32 13.3 °C 12.2 °C 1017.2 hPa Calm     93 % 0.0 mm
03:37 13.3 °C 12.2 °C 1017.2 hPa Calm     93 % 0.0 mm
03:42 13.4 °C 12.5 °C 1017.2 hPa Calm     94 % 0.0 mm
03:47 13.4 °C 12.5 °C 1017.2 hPa Calm     94 % 0.0 mm
03:52 13.5 °C 12.6 °C 1017.2 hPa Calm     94 % 0.0 mm
03:57 13.6 °C 12.7 °C 1017.2 hPa Calm     94 % 0.0 mm
04:02 13.6 °C 12.7 °C 1017.2 hPa Calm     94 % 0.0 mm
04:07 13.6 °C 12.7 °C 1017.2 hPa Calm     94 % 0.0 mm
04:12 13.5 °C 12.4 °C 1017.2 hPa Calm     93 % 0.0 mm
04:17 13.3 °C 12.2 °C 1017.2 hPa Calm     93 % 0.0 mm
04:22 13.3 °C 12.4 °C 1017.2 hPa Calm     94 % 0.0 mm
04:27 13.3 °C 12.4 °C 1017.2 hPa Calm     94 % 0.0 mm
04:32 13.3 °C 12.4 °C 1017.2 hPa Calm     94 % 0.0 mm
04:37 13.2 °C 12.3 °C 1016.8 hPa Calm     94 % 0.0 mm
04:42 13.2 °C 12.3 °C 1016.8 hPa Calm     94 % 0.0 mm
04:47 13.1 °C 12.2 °C 1016.8 hPa Calm     94 % 0.0 mm
04:52 12.9 °C 12.0 °C 1017.2 hPa Calm     94 % 0.0 mm
04:57 12.9 °C 12.0 °C 1017.2 hPa Calm     94 % 0.0 mm
05:02 12.8 °C 11.9 °C 1017.2 hPa Calm     94 % 0.0 mm
05:07 12.7 °C 11.8 °C 1016.8 hPa Calm     94 % 0.0 mm
05:12 12.6 °C 11.7 °C 1016.8 hPa Calm     94 % 0.0 mm
05:17 12.5 °C 11.6 °C 1016.8 hPa Calm     94 % 0.0 mm
05:22 12.4 °C 11.6 °C 1016.8 hPa Calm     95 % 0.0 mm
05:27 12.5 °C 11.7 °C 1016.8 hPa Calm     95 % 0.0 mm
05:32 12.4 °C 11.6 °C 1017.2 hPa Calm     95 % 0.0 mm
05:37 12.3 °C 11.5 °C 1017.2 hPa Calm     95 % 0.0 mm
05:42 12.2 °C 11.4 °C 1017.2 hPa Calm     95 % 0.0 mm
05:47 12.2 °C 11.4 °C 1017.2 hPa Calm     95 % 0.0 mm
05:52 12.2 °C 11.4 °C 1017.2 hPa Calm     95 % 0.0 mm
05:57 12.1 °C 11.3 °C 1017.2 hPa Calm     95 % 0.0 mm
06:02 12.1 °C 11.3 °C 1017.2 hPa Calm     95 % 0.0 mm
06:07 12.1 °C 11.3 °C 1017.2 hPa Calm     95 % 0.0 mm
06:12 12.1 °C 11.3 °C 1017.2 hPa Calm     95 % 0.0 mm
06:17 12.0 °C 11.2 °C 1017.2 hPa Calm     95 % 0.0 mm
06:22 11.9 °C 11.3 °C 1017.2 hPa Calm     96 % 0.0 mm
06:27 11.9 °C 11.3 °C 1017.2 hPa Calm     96 % 0.0 mm
06:32 12.0 °C 11.4 °C 1017.2 hPa Calm     96 % 0.0 mm
06:37 12.0 °C 11.4 °C 1017.2 hPa Calm     96 % 0.0 mm
06:42 12.1 °C 11.5 °C 1017.2 hPa Calm     96 % 0.0 mm
06:47 12.1 °C 11.5 °C 1017.2 hPa Calm     96 % 0.0 mm
06:52 12.1 °C 11.5 °C 1017.5 hPa Calm     96 % 0.0 mm
06:57 12.3 °C 11.7 °C 1017.5 hPa Calm     96 % 0.0 mm
07:02 12.4 °C 11.8 °C 1017.2 hPa Calm     96 % 0.0 mm
07:07 12.6 °C 12.1 °C 1017.2 hPa Calm     97 % 0.0 mm
07:12 12.7 °C 12.2 °C 1017.5 hPa Calm     97 % 0.0 mm
07:17 12.9 °C 12.4 °C 1017.5 hPa Calm     97 % 0.0 mm
07:22 13.1 °C 12.6 °C 1017.5 hPa Calm     97 % 0.0 mm
07:27 13.3 °C 12.8 °C 1017.5 hPa Calm     97 % 0.0 mm
07:32 13.4 °C 12.9 °C 1017.5 hPa Calm     97 % 0.0 mm
07:37 13.7 °C 13.2 °C 1017.5 hPa Calm     97 % 0.0 mm
07:42 13.9 °C 13.4 °C 1017.5 hPa Calm     97 % 0.0 mm
07:52 14.3 °C 13.8 °C 1017.2 hPa Calm     97 % 0.0 mm
07:57 14.4 °C 13.9 °C 1017.2 hPa Calm     97 % 0.0 mm
08:02 14.7 °C 14.2 °C 1017.5 hPa Calm     97 % 0.0 mm
08:07 15.0 °C 14.5 °C 1017.5 hPa Calm     97 % 0.0 mm
08:12 15.6 °C 15.3 °C 1017.2 hPa Calm     98 % 0.0 mm
08:17 15.8 °C 15.5 °C 1017.5 hPa Calm     98 % 0.0 mm
08:22 16.0 °C 15.7 °C 1017.5 hPa Calm     98 % 0.0 mm
08:27 16.2 °C 15.7 °C 1017.5 hPa Calm     97 % 0.0 mm
08:32 16.6 °C 16.0 °C 1017.5 hPa Calm     96 % 0.0 mm
08:37 17.2 °C 15.5 °C 1017.5 hPa Calm     90 % 0.0 mm
08:42 17.7 °C 15.7 °C 1017.5 hPa Calm     88 % 0.0 mm
08:47 18.1 °C 15.5 °C 1017.8 hPa Calm     85 % 0.0 mm
08:52 18.2 °C 15.5 °C 1017.5 hPa Calm     84 % 0.0 mm
08:57 18.7 °C 16.1 °C 1017.8 hPa Calm     85 % 0.0 mm
09:02 19.2 °C 16.4 °C 1017.5 hPa Calm     84 % 0.0 mm
09:07 19.8 °C 16.4 °C 1017.5 hPa Calm     81 % 0.0 mm
09:12 20.3 °C 16.5 °C 1017.5 hPa Calm     79 % 0.0 mm
09:17 20.9 °C 16.7 °C 1017.5 hPa Calm     77 % 0.0 mm
09:22 21.4 °C 17.0 °C 1017.8 hPa Calm     76 % 0.0 mm
09:27 22.2 °C 17.3 °C 1017.8 hPa Calm     74 % 0.0 mm
09:32 22.8 °C 16.8 °C 1017.5 hPa Calm     69 % 0.0 mm
09:37 23.3 °C 17.3 °C 1017.8 hPa Calm     69 % 0.0 mm
09:42 23.8 °C 16.8 °C 1017.8 hPa Calm     65 % 0.0 mm
09:47 24.0 °C 16.0 °C 1017.8 hPa Calm     61 % 0.0 mm
09:52 24.2 °C 16.5 °C 1017.8 hPa Calm     62 % 0.0 mm
09:57 24.7 °C 16.7 °C 1017.5 hPa Calm     61 % 0.0 mm
10:02 24.8 °C 16.0 °C 1017.5 hPa Calm     58 % 0.0 mm
10:07 25.1 °C 17.0 °C 1017.8 hPa Calm     61 % 0.0 mm
10:12 25.3 °C 15.3 °C 1017.8 hPa Calm     54 % 0.0 mm
10:17 25.4 °C 15.7 °C 1017.8 hPa Calm     55 % 0.0 mm
10:22 25.7 °C 16.0 °C 1017.5 hPa Calm     55 % 0.0 mm
10:27 26.1 °C 16.6 °C 1017.5 hPa Calm     56 % 0.0 mm
10:32 26.4 °C 15.4 °C 1017.5 hPa Calm     51 % 0.0 mm
10:37 26.6 °C 15.9 °C 1017.5 hPa Calm     52 % 0.0 mm
10:42 26.7 °C 15.7 °C 1017.5 hPa Calm     51 % 0.0 mm
10:47 26.8 °C 15.5 °C 1017.5 hPa Calm     50 % 0.0 mm
10:52 27.1 °C 15.8 °C 1017.5 hPa Calm     50 % 0.0 mm
10:57 27.3 °C 16.3 °C 1017.5 hPa Calm     51 % 0.0 mm
11:02 27.3 °C 16.0 °C 1017.5 hPa Calm     50 % 0.0 mm
11:07 27.4 °C 15.1 °C 1017.8 hPa Calm     47 % 0.0 mm
11:12 27.6 °C 16.2 °C 1017.8 hPa Calm     50 % 0.0 mm
11:17 27.6 °C 15.9 °C 1017.8 hPa SW 3.2 km/h   49 % 0.0 mm
11:22 27.7 °C 15.7 °C 1017.8 hPa Calm   6.4 km/h 48 % 0.0 mm
11:27 27.9 °C 14.9 °C 1017.8 hPa SW 3.2 km/h 6.4 km/h 45 % 0.0 mm
11:32 28.1 °C 15.7 °C 1017.8 hPa WSW 6.4 km/h 11.3 km/h 47 % 0.0 mm
11:37 28.2 °C 15.1 °C 1017.8 hPa SW 1.6 km/h 11.3 km/h 45 % 0.0 mm
11:42 28.2 °C 14.4 °C 1017.8 hPa WSW 4.8 km/h 11.3 km/h 43 % 0.0 mm
11:47 28.2 °C 15.1 °C 1017.8 hPa Calm   11.3 km/h 45 % 0.0 mm
11:52 28.3 °C 15.6 °C 1017.8 hPa Calm   11.3 km/h 46 % 0.0 mm
11:57 28.6 °C 15.5 °C 1017.8 hPa West 1.6 km/h 11.3 km/h 45 % 0.0 mm
12:02 28.9 °C 15.8 °C 1017.8 hPa SW 4.8 km/h 8.0 km/h 45 % 0.0 mm
12:07 29.0 °C 15.2 °C 1017.8 hPa ESE 1.6 km/h 9.7 km/h 43 % 0.0 mm
12:12 29.1 °C 15.6 °C 1017.8 hPa WSW 8.0 km/h 14.5 km/h 44 % 0.0 mm
12:17 28.9 °C 15.8 °C 1017.8 hPa West 3.2 km/h 14.5 km/h 45 % 0.0 mm
12:22 29.0 °C 15.5 °C 1017.8 hPa WSW 3.2 km/h 14.5 km/h 44 % 0.0 mm
12:27 29.2 °C 16.4 °C 1017.8 hPa South 1.6 km/h 11.3 km/h 46 % 0.0 mm
12:32 29.2 °C 14.6 °C 1017.8 hPa SW 6.4 km/h 11.3 km/h 41 % 0.0 mm
12:42 29.3 °C 14.7 °C 1017.8 hPa SW 1.6 km/h 12.9 km/h 41 % 0.0 mm
12:47 29.4 °C 14.8 °C 1017.8 hPa West 1.6 km/h 12.9 km/h 41 % 0.0 mm
12:52 29.4 °C 15.5 °C 1017.8 hPa SW 3.2 km/h 12.9 km/h 43 % 0.0 mm
12:57 29.3 °C 15.4 °C 1017.8 hPa WSW 1.6 km/h 12.9 km/h 43 % 0.0 mm
13:02 29.6 °C 16.4 °C 1017.8 hPa SW 1.6 km/h 12.9 km/h 45 % 0.0 mm
13:07 29.7 °C 15.4 °C 1017.8 hPa West 1.6 km/h 12.9 km/h 42 % 0.0 mm
13:12 30.0 °C 16.4 °C 1017.8 hPa WNW 1.6 km/h 12.9 km/h 44 % 0.0 mm
13:17 30.2 °C 16.2 °C 1017.8 hPa WSW 6.4 km/h 6.4 km/h 43 % 0.0 mm
13:22 30.1 °C 15.8 °C 1017.8 hPa WSW 3.2 km/h 11.3 km/h 42 % 0.0 mm
13:32 30.1 °C 15.4 °C 1017.8 hPa WSW 1.6 km/h 11.3 km/h 41 % 0.0 mm
13:37 30.4 °C 17.1 °C 1017.8 hPa West 1.6 km/h 11.3 km/h 45 % 0.0 mm
13:42 30.7 °C 15.5 °C 1017.8 hPa Calm   11.3 km/h 40 % 0.0 mm
13:47 30.8 °C 16.0 °C 1017.8 hPa ENE 6.4 km/h 6.4 km/h 41 % 0.0 mm
13:52 30.7 °C 16.7 °C 1017.8 hPa WSW 3.2 km/h 14.5 km/h 43 % 0.0 mm
13:57 30.7 °C 15.9 °C 1017.8 hPa WSW 4.8 km/h 14.5 km/h 41 % 0.0 mm
14:02 30.7 °C 16.7 °C 1017.8 hPa Calm   14.5 km/h 43 % 0.0 mm
14:07 30.6 °C 16.6 °C 1017.8 hPa South 8.0 km/h 14.5 km/h 43 % 0.0 mm
14:12 30.6 °C 17.0 °C 1017.8 hPa SW 1.6 km/h 14.5 km/h 44 % 0.0 mm
14:22 30.5 °C 17.2 °C 1017.8 hPa SW 6.4 km/h 12.9 km/h 45 % 0.0 mm
14:27 30.4 °C 17.1 °C 1017.8 hPa Calm   9.7 km/h 45 % 0.0 mm
14:32 30.4 °C 17.1 °C 1017.8 hPa NNE 1.6 km/h 9.7 km/h 45 % 0.0 mm
14:37 30.6 °C 17.7 °C 1017.8 hPa Calm   9.7 km/h 46 % 0.0 mm
14:42 30.3 °C 17.7 °C 1017.8 hPa WSW 1.6 km/h 8.0 km/h 47 % 0.0 mm
14:47 30.2 °C 17.6 °C 1017.8 hPa Calm   9.7 km/h 47 % 0.0 mm
14:52 30.4 °C 18.8 °C 1017.8 hPa SW 1.6 km/h 9.7 km/h 50 % 0.0 mm
14:57 30.5 °C 18.2 °C 1018.2 hPa WSW 1.6 km/h 9.7 km/h 48 % 0.0 mm
15:02 30.7 °C 18.4 °C 1017.8 hPa Calm   16.1 km/h 48 % 0.0 mm
15:07 30.7 °C 18.8 °C 1018.2 hPa Calm   16.1 km/h 49 % 0.0 mm
15:12 30.7 °C 18.1 °C 1017.8 hPa SW 3.2 km/h 8.0 km/h 47 % 0.0 mm
15:17 30.6 °C 17.7 °C 1017.8 hPa WSW 1.6 km/h 8.0 km/h 46 % 0.0 mm
15:22 30.6 °C 19.0 °C 1018.2 hPa SE 1.6 km/h 8.0 km/h 50 % 0.0 mm
15:27 30.2 °C 17.6 °C 1018.2 hPa Calm   8.0 km/h 47 % 0.0 mm
15:32 30.6 °C 18.3 °C 1018.2 hPa SW 4.8 km/h 8.0 km/h 48 % 0.0 mm
15:37 30.4 °C 17.5 °C 1018.2 hPa Calm   8.0 km/h 46 % 0.0 mm
15:42 30.1 °C 17.2 °C 1018.2 hPa SW 1.6 km/h 8.0 km/h 46 % 0.0 mm
15:47 30.0 °C 18.4 °C 1017.8 hPa WSW 3.2 km/h 6.4 km/h 50 % 0.0 mm
15:52 30.6 °C 19.0 °C 1018.2 hPa SW 3.2 km/h 12.9 km/h 50 % 0.0 mm
15:57 30.4 °C 18.8 °C 1018.2 hPa Calm   12.9 km/h 50 % 0.0 mm
16:02 30.1 °C 18.5 °C 1018.2 hPa West 1.6 km/h 12.9 km/h 50 % 0.0 mm
16:07 30.2 °C 18.6 °C 1017.8 hPa West 3.2 km/h 8.0 km/h 50 % 0.0 mm
16:12 30.3 °C 18.4 °C 1018.2 hPa ENE 3.2 km/h 8.0 km/h 49 % 0.0 mm
16:17 29.8 °C 18.6 °C 1017.8 hPa Calm   9.7 km/h 51 % 0.0 mm
16:22 29.9 °C 18.0 °C 1018.2 hPa SW 3.2 km/h 9.7 km/h 49 % 0.0 mm
16:27 30.2 °C 18.3 °C 1018.2 hPa SW 11.3 km/h 11.3 km/h 49 % 0.0 mm
16:32 30.2 °C 18.9 °C 1018.2 hPa Calm   12.9 km/h 51 % 0.0 mm
16:37 30.1 °C 17.9 °C 1018.2 hPa Calm   12.9 km/h 48 % 0.0 mm
16:42 29.8 °C 18.3 °C 1018.2 hPa Calm   12.9 km/h 50 % 0.0 mm
16:52 30.2 °C 17.6 °C 1018.2 hPa SE 4.8 km/h 11.3 km/h 47 % 0.0 mm
16:57 30.2 °C 18.0 °C 1018.2 hPa Calm   11.3 km/h 48 % 0.0 mm
17:02 29.9 °C 18.7 °C 1018.5 hPa ENE 9.7 km/h 9.7 km/h 51 % 0.0 mm
17:12 29.5 °C 17.3 °C 1018.5 hPa West 3.2 km/h 16.1 km/h 48 % 0.0 mm
17:17 29.5 °C 17.7 °C 1018.5 hPa SE 3.2 km/h 16.1 km/h 49 % 0.0 mm
17:22 29.5 °C 17.7 °C 1018.5 hPa SW 3.2 km/h 9.7 km/h 49 % 0.0 mm
17:27 29.4 °C 17.9 °C 1018.5 hPa Calm   9.7 km/h 50 % 0.0 mm
17:32 29.3 °C 18.4 °C 1018.5 hPa West 1.6 km/h 4.8 km/h 52 % 0.0 mm
17:42 29.4 °C 17.9 °C 1018.5 hPa Calm   6.4 km/h 50 % 0.0 mm
17:47 29.4 °C 16.9 °C 1018.5 hPa WSW 1.6 km/h 8.0 km/h 47 % 0.0 mm
17:52 29.3 °C 17.2 °C 1018.5 hPa SW 1.6 km/h 9.7 km/h 48 % 0.0 mm
17:57 29.3 °C 16.5 °C 1018.5 hPa Calm   9.7 km/h 46 % 0.0 mm
18:02 29.2 °C 17.1 °C 1018.5 hPa Calm   6.4 km/h 48 % 0.0 mm
18:07 29.2 °C 16.7 °C 1018.5 hPa West 1.6 km/h 8.0 km/h 47 % 0.0 mm
18:12 29.1 °C 17.0 °C 1018.5 hPa Calm   8.0 km/h 48 % 0.0 mm
18:17 29.4 °C 17.2 °C 1018.8 hPa Calm   8.0 km/h 48 % 0.0 mm
18:22 29.7 °C 17.2 °C 1018.5 hPa Calm   8.0 km/h 47 % 0.0 mm
18:27 29.3 °C 17.2 °C 1018.8 hPa Calm   4.8 km/h 48 % 0.0 mm
18:32 29.1 °C 16.6 °C 1018.8 hPa Calm   6.4 km/h 47 % 0.0 mm
18:42 28.7 °C 16.9 °C 1018.8 hPa NNE 1.6 km/h 9.7 km/h 49 % 0.0 mm
18:47 28.5 °C 17.1 °C 1018.8 hPa Calm   9.7 km/h 50 % 0.0 mm
18:52 28.4 °C 17.0 °C 1018.8 hPa Calm   6.4 km/h 50 % 0.0 mm
18:57 28.2 °C 17.4 °C 1018.8 hPa Calm   6.4 km/h 52 % 0.0 mm
19:02 28.1 °C 17.0 °C 1018.8 hPa SW 3.2 km/h 6.4 km/h 51 % 0.0 mm
19:07 28.1 °C 16.7 °C 1018.8 hPa Calm   6.4 km/h 50 % 0.0 mm
19:12 27.9 °C 16.5 °C 1018.8 hPa Calm   6.4 km/h 50 % 0.0 mm
19:17 27.8 °C 16.1 °C 1018.8 hPa Calm   6.4 km/h 49 % 0.0 mm
19:22 27.6 °C 15.6 °C 1018.8 hPa ENE 1.6 km/h 4.8 km/h 48 % 0.0 mm
19:27 27.2 °C 15.2 °C 1018.8 hPa Calm   8.0 km/h 48 % 0.0 mm
19:32 27.1 °C 15.1 °C 1019.2 hPa Calm   8.0 km/h 48 % 0.0 mm
19:37 27.0 °C 15.1 °C 1019.2 hPa Calm   8.0 km/h 48 % 0.0 mm
19:42 26.9 °C 15.9 °C 1019.2 hPa Calm   6.4 km/h 51 % 0.0 mm
19:52 26.6 °C 15.3 °C 1019.2 hPa Calm   6.4 km/h 50 % 0.0 mm
19:57 26.4 °C 15.1 °C 1019.2 hPa Calm   1.6 km/h 50 % 0.0 mm
20:02 26.2 °C 15.0 °C 1019.5 hPa Calm   3.2 km/h 50 % 0.0 mm
20:07 25.9 °C 14.0 °C 1019.5 hPa Calm   3.2 km/h 48 % 0.0 mm
20:12 25.7 °C 13.5 °C 1019.5 hPa Calm   3.2 km/h 47 % 0.0 mm
20:17 25.5 °C 13.0 °C 1019.5 hPa Calm   3.2 km/h 46 % 0.0 mm
20:22 25.2 °C 13.4 °C 1019.5 hPa Calm   1.6 km/h 48 % 0.0 mm
20:32 24.8 °C 13.4 °C 1019.5 hPa Calm   1.6 km/h 49 % 0.0 mm
20:37 24.6 °C 13.8 °C 1019.5 hPa Calm   1.6 km/h 51 % 0.0 mm
20:47 23.9 °C 14.3 °C 1019.5 hPa Calm     55 % 0.0 mm
20:52 23.6 °C 14.0 °C 1019.9 hPa Calm     55 % 0.0 mm
20:57 23.3 °C 14.3 °C 1019.9 hPa Calm     57 % 0.0 mm
21:02 22.9 °C 14.5 °C 1019.9 hPa Calm     59 % 0.0 mm
21:12 22.2 °C 14.3 °C 1019.9 hPa Calm     61 % 0.0 mm
21:17 21.9 °C 14.0 °C 1019.9 hPa Calm     61 % 0.0 mm
21:22 21.7 °C 13.8 °C 1019.9 hPa Calm     61 % 0.0 mm
21:27 21.5 °C 14.4 °C 1019.9 hPa Calm     64 % 0.0 mm
21:32 21.2 °C 14.1 °C 1019.9 hPa Calm     64 % 0.0 mm
21:37 20.9 °C 14.1 °C 1019.9 hPa Calm     65 % 0.0 mm
21:46 20.7 °C 14.1 °C 1019.9 hPa Calm     66 % 0.0 mm
21:54 20.2 °C 13.9 °C 1020.2 hPa Calm     67 % 0.0 mm
22:02 19.8 °C 13.9 °C 1020.2 hPa Calm     69 % 0.0 mm
22:07 19.6 °C 14.2 °C 1020.2 hPa Calm     71 % 0.0 mm
22:12 19.4 °C 14.4 °C 1020.5 hPa Calm     73 % 0.0 mm
22:17 19.2 °C 14.7 °C 1020.5 hPa Calm     75 % 0.0 mm
22:22 18.9 °C 14.4 °C 1020.5 hPa Calm     75 % 0.0 mm
22:27 18.7 °C 14.4 °C 1020.5 hPa Calm     76 % 0.0 mm
22:32 18.6 °C 14.7 °C 1020.5 hPa Calm     78 % 0.0 mm
22:42 18.3 °C 14.4 °C 1020.9 hPa Calm     78 % 0.0 mm
22:52 18.1 °C 14.2 °C 1020.9 hPa Calm     78 % 0.0 mm
23:02 17.9 °C 14.0 °C 1020.9 hPa Calm     78 % 0.0 mm
23:07 17.9 °C 14.0 °C 1020.9 hPa Calm     78 % 0.0 mm
23:12 17.8 °C 13.9 °C 1020.9 hPa Calm     78 % 0.0 mm
23:17 17.8 °C 13.9 °C 1020.9 hPa Calm     78 % 0.0 mm
23:22 17.8 °C 13.9 °C 1020.9 hPa Calm     78 % 0.0 mm
23:27 17.8 °C 14.3 °C 1021.2 hPa Calm     80 % 0.0 mm
23:32 17.6 °C 14.3 °C 1021.2 hPa Calm     81 % 0.0 mm
23:42 17.4 °C 14.1 °C 1021.2 hPa Calm     81 % 0.0 mm
23:52 17.3 °C 14.2 °C 1021.2 hPa Calm     82 % 0.0 mm
23:57 17.6 °C 14.1 °C 1021.2 hPa Calm     80 % 0.0 mm
Meteo18
Compliments of Weather Underground - 4 mb

Script developed by  Jim McMurry - jmcmurry@mwt.net Adapted for the template by  Wim van der Kuil - Leuven-Template.eu

You find our weather info also at:

European Weather Network

Weather Underground

Equipment we use:

Weather-station
Davis Vue

Weather-program
Meteohub

Weather-server
Raspberry PI 2 B+

Provider
1 and 1

Davis Vue

Meteohub

Raspberry PI 2 B+

1 and 1